sensor_id;sensor_type;location;lat;lon;timestamp;pressure;altitude;pressure_sealevel;temperature;humidity
83246;BME280;73140;46.754;17.714;2023-12-28T00:02:27;100309.03;;;8.17;78.29
83246;BME280;73140;46.754;17.714;2023-12-28T00:05:35;100291.69;;;7.95;78.27
83246;BME280;73140;46.754;17.714;2023-12-28T00:09:13;100325.44;;;8.08;79.45
83246;BME280;73140;46.754;17.714;2023-12-28T00:18:56;100277.56;;;7.93;79.50
83246;BME280;73140;46.754;17.714;2023-12-28T00:21:35;100302.69;;;8.11;79.21
83246;BME280;73140;46.754;17.714;2023-12-28T00:28:25;100289.66;;;7.88;79.11
83246;BME280;73140;46.754;17.714;2023-12-28T00:37:51;100315.78;;;8.07;79.81
83246;BME280;73140;46.754;17.714;2023-12-28T00:41:07;100298.28;;;7.83;79.01
83246;BME280;73140;46.754;17.714;2023-12-28T00:44:01;100306.59;;;7.95;80.61
83246;BME280;73140;46.754;17.714;2023-12-28T00:46:28;100287.44;;;7.72;81.11
83246;BME280;73140;46.754;17.714;2023-12-28T01:00:16;100289.19;;;7.73;81.01
83246;BME280;73140;46.754;17.714;2023-12-28T01:06:48;100296.44;;;7.80;82.08
83246;BME280;73140;46.754;17.714;2023-12-28T01:37:12;100283.44;;;7.58;82.38
83246;BME280;73140;46.754;17.714;2023-12-28T01:46:43;100242.16;;;7.57;81.60
83246;BME280;73140;46.754;17.714;2023-12-28T02:27:11;100250.16;;;7.88;79.41
83246;BME280;73140;46.754;17.714;2023-12-28T02:32:08;100223.75;;;7.85;78.41
83246;BME280;73140;46.754;17.714;2023-12-28T02:34:48;100224.94;;;7.95;78.77
83246;BME280;73140;46.754;17.714;2023-12-28T02:40:48;100227.69;;;7.71;79.49
83246;BME280;73140;46.754;17.714;2023-12-28T02:43:16;100231.16;;;7.70;80.74
83246;BME280;73140;46.754;17.714;2023-12-28T02:52:03;100234.28;;;7.85;79.99
83246;BME280;73140;46.754;17.714;2023-12-28T03:01:21;100226.28;;;7.82;80.14
83246;BME280;73140;46.754;17.714;2023-12-28T03:03:49;100194.41;;;7.73;79.05
83246;BME280;73140;46.754;17.714;2023-12-28T03:09:06;100194.81;;;7.58;79.69
83246;BME280;73140;46.754;17.714;2023-12-28T03:18:04;100218.56;;;7.60;80.19
83246;BME280;73140;46.754;17.714;2023-12-28T03:27:04;100183.09;;;7.49;80.44
83246;BME280;73140;46.754;17.714;2023-12-28T03:43:25;100197.53;;;7.60;79.71
83246;BME280;73140;46.754;17.714;2023-12-28T03:45:59;100163.66;;;7.44;80.03
83246;BME280;73140;46.754;17.714;2023-12-28T03:48:48;100189.03;;;7.42;80.88
83246;BME280;73140;46.754;17.714;2023-12-28T03:51:37;100174.19;;;7.44;80.89
83246;BME280;73140;46.754;17.714;2023-12-28T03:57:45;100162.94;;;7.49;80.16
83246;BME280;73140;46.754;17.714;2023-12-28T04:27:30;100188.69;;;7.31;80.73
83246;BME280;73140;46.754;17.714;2023-12-28T04:30:15;100145.28;;;7.17;81.08
83246;BME280;73140;46.754;17.714;2023-12-28T04:32:45;100163.44;;;7.36;80.67
83246;BME280;73140;46.754;17.714;2023-12-28T04:35:22;100172.22;;;7.37;81.52
83246;BME280;73140;46.754;17.714;2023-12-28T04:37:51;100146.88;;;7.13;81.79
83246;BME280;73140;46.754;17.714;2023-12-28T04:40:17;100175.28;;;7.24;81.23
83246;BME280;73140;46.754;17.714;2023-12-28T04:42:44;100168.97;;;7.19;81.39
83246;BME280;73140;46.754;17.714;2023-12-28T04:45:16;100171.34;;;7.11;81.50
83246;BME280;73140;46.754;17.714;2023-12-28T04:48:14;100170.84;;;7.21;80.54
83246;BME280;73140;46.754;17.714;2023-12-28T04:50:52;100136.84;;;7.02;82.23
83246;BME280;73140;46.754;17.714;2023-12-28T04:53:36;100140.84;;;6.89;81.72
83246;BME280;73140;46.754;17.714;2023-12-28T04:56:29;100143.16;;;6.80;82.31
83246;BME280;73140;46.754;17.714;2023-12-28T05:02:48;100168.16;;;6.94;82.58
83246;BME280;73140;46.754;17.714;2023-12-28T05:05:15;100144.31;;;6.88;81.31
83246;BME280;73140;46.754;17.714;2023-12-28T05:07:41;100160.28;;;6.94;81.25
83246;BME280;73140;46.754;17.714;2023-12-28T05:10:13;100136.09;;;6.79;81.93
83246;BME280;73140;46.754;17.714;2023-12-28T05:15:52;100145.00;;;6.83;82.05
83246;BME280;73140;46.754;17.714;2023-12-28T05:18:22;100128.03;;;6.73;81.87
83246;BME280;73140;46.754;17.714;2023-12-28T05:25:02;100138.03;;;6.58;82.73
83246;BME280;73140;46.754;17.714;2023-12-28T05:28:12;100155.22;;;6.74;82.30
83246;BME280;73140;46.754;17.714;2023-12-28T05:30:56;100163.03;;;6.72;82.54
83246;BME280;73140;46.754;17.714;2023-12-28T05:33:26;100139.13;;;6.64;82.03
83246;BME280;73140;46.754;17.714;2023-12-28T05:35:59;100138.44;;;6.70;82.67
83246;BME280;73140;46.754;17.714;2023-12-28T05:38:28;100127.53;;;6.58;83.71
83246;BME280;73140;46.754;17.714;2023-12-28T05:41:02;100139.19;;;6.66;82.40
83246;BME280;73140;46.754;17.714;2023-12-28T05:43:38;100118.16;;;6.41;82.01
83246;BME280;73140;46.754;17.714;2023-12-28T05:46:04;100164.19;;;6.55;83.50
83246;BME280;73140;46.754;17.714;2023-12-28T05:51:41;100106.06;;;6.46;83.12
83246;BME280;73140;46.754;17.714;2023-12-28T05:54:46;100127.28;;;6.52;83.95
83246;BME280;73140;46.754;17.714;2023-12-28T06:00:22;100133.25;;;6.46;82.62
83246;BME280;73140;46.754;17.714;2023-12-28T06:02:48;100143.06;;;6.52;82.94
83246;BME280;73140;46.754;17.714;2023-12-28T06:05:30;100145.75;;;6.53;82.55
83246;BME280;73140;46.754;17.714;2023-12-28T06:10:59;100135.16;;;6.52;82.54
83246;BME280;73140;46.754;17.714;2023-12-28T06:20:02;100151.47;;;6.42;84.01
83246;BME280;73140;46.754;17.714;2023-12-28T06:22:30;100153.38;;;6.46;83.53
83246;BME280;73140;46.754;17.714;2023-12-28T06:25:16;100127.94;;;6.45;83.86
83246;BME280;73140;46.754;17.714;2023-12-28T06:28:15;100150.50;;;6.40;83.78
83246;BME280;73140;46.754;17.714;2023-12-28T06:30:41;100116.00;;;6.29;82.75
83246;BME280;73140;46.754;17.714;2023-12-28T06:33:07;100142.53;;;6.37;83.35
83246;BME280;73140;46.754;17.714;2023-12-28T06:35:35;100153.13;;;6.40;82.46
83246;BME280;73140;46.754;17.714;2023-12-28T06:38:19;100147.94;;;6.41;83.88
83246;BME280;73140;46.754;17.714;2023-12-28T06:44:00;100126.56;;;6.31;82.83
83246;BME280;73140;46.754;17.714;2023-12-28T06:46:50;100147.28;;;6.47;83.01
83246;BME280;73140;46.754;17.714;2023-12-28T06:49:19;100174.50;;;6.49;82.70
83246;BME280;73140;46.754;17.714;2023-12-28T06:51:55;100174.50;;;6.49;82.71
83246;BME280;73140;46.754;17.714;2023-12-28T06:54:52;100142.97;;;6.49;82.16
83246;BME280;73140;46.754;17.714;2023-12-28T06:57:21;100157.81;;;6.48;82.22
83246;BME280;73140;46.754;17.714;2023-12-28T06:59:48;100147.47;;;6.53;83.20
83246;BME280;73140;46.754;17.714;2023-12-28T07:02:33;100146.84;;;6.60;81.47
83246;BME280;73140;46.754;17.714;2023-12-28T07:05:02;100182.69;;;6.83;81.09
83246;BME280;73140;46.754;17.714;2023-12-28T07:07:58;100170.28;;;6.79;82.25
83246;BME280;73140;46.754;17.714;2023-12-28T07:10:34;100152.34;;;6.93;80.20
83246;BME280;73140;46.754;17.714;2023-12-28T07:13:04;100186.16;;;7.07;81.08
83246;BME280;73140;46.754;17.714;2023-12-28T07:15:42;100186.72;;;6.99;80.19
83246;BME280;73140;46.754;17.714;2023-12-28T07:18:47;100167.59;;;7.03;80.45
83246;BME280;73140;46.754;17.714;2023-12-28T07:21:30;100185.59;;;7.18;80.44
83246;BME280;73140;46.754;17.714;2023-12-28T07:24:17;100179.56;;;7.20;81.04
83246;BME280;73140;46.754;17.714;2023-12-28T07:26:55;100189.19;;;7.20;79.45
83246;BME280;73140;46.754;17.714;2023-12-28T07:29:34;100188.88;;;7.37;80.15
83246;BME280;73140;46.754;17.714;2023-12-28T07:32:11;100154.84;;;7.15;79.49
83246;BME280;73140;46.754;17.714;2023-12-28T07:34:50;100178.97;;;7.29;80.05
83246;BME280;73140;46.754;17.714;2023-12-28T07:37:25;100173.81;;;7.33;79.43
83246;BME280;73140;46.754;17.714;2023-12-28T07:39:51;100170.50;;;7.39;79.69
83246;BME280;73140;46.754;17.714;2023-12-28T07:42:20;100172.56;;;7.49;78.97
83246;BME280;73140;46.754;17.714;2023-12-28T07:44:52;100167.03;;;7.40;78.91
83246;BME280;73140;46.754;17.714;2023-12-28T07:51:12;100187.84;;;7.60;78.28
83246;BME280;73140;46.754;17.714;2023-12-28T08:06:32;100202.28;;;8.01;77.73
83246;BME280;73140;46.754;17.714;2023-12-28T08:08:58;100211.03;;;8.00;77.15
83246;BME280;73140;46.754;17.714;2023-12-28T08:11:36;100211.16;;;8.03;76.61
83246;BME280;73140;46.754;17.714;2023-12-28T08:17:42;100196.25;;;8.05;76.26
83246;BME280;73140;46.754;17.714;2023-12-28T09:17:24;100246.22;;;9.25;72.99
83246;BME280;73140;46.754;17.714;2023-12-28T10:08:13;100181.00;;;9.95;73.02
83246;BME280;73140;46.754;17.714;2023-12-28T10:28:10;100161.50;;;10.32;70.16
83246;BME280;73140;46.754;17.714;2023-12-28T11:06:22;100104.69;;;11.10;67.01
83246;BME280;73140;46.754;17.714;2023-12-28T11:09:01;100130.25;;;11.08;67.14
83246;BME280;73140;46.754;17.714;2023-12-28T11:23:15;100112.19;;;11.38;66.29
83246;BME280;73140;46.754;17.714;2023-12-28T11:28:37;100098.19;;;11.47;65.30
83246;BME280;73140;46.754;17.714;2023-12-28T11:46:53;100069.75;;;11.33;66.73
83246;BME280;73140;46.754;17.714;2023-12-28T11:52:25;100051.47;;;11.52;66.25
83246;BME280;73140;46.754;17.714;2023-12-28T16:00:19;100006.50;;;9.49;76.54
83246;BME280;73140;46.754;17.714;2023-12-28T16:08:34;100020.13;;;10.14;73.05
83246;BME280;73140;46.754;17.714;2023-12-28T16:26:21;100024.72;;;10.22;72.89
83246;BME280;73140;46.754;17.714;2023-12-28T16:44:16;100049.16;;;10.57;71.14
83246;BME280;73140;46.754;17.714;2023-12-28T16:47:01;100027.88;;;10.51;72.01
83246;BME280;73140;46.754;17.714;2023-12-28T16:52:05;100047.22;;;10.49;73.10
83246;BME280;73140;46.754;17.714;2023-12-28T16:54:44;100025.09;;;10.43;71.34
83246;BME280;73140;46.754;17.714;2023-12-28T16:57:10;100050.72;;;10.48;72.72
83246;BME280;73140;46.754;17.714;2023-12-28T16:59:38;100051.72;;;10.53;72.09
83246;BME280;73140;46.754;17.714;2023-12-28T17:02:07;100047.19;;;10.47;72.92
83246;BME280;73140;46.754;17.714;2023-12-28T17:04:34;100055.16;;;10.49;71.43
83246;BME280;73140;46.754;17.714;2023-12-28T17:07:09;100060.59;;;10.56;71.13
83246;BME280;73140;46.754;17.714;2023-12-28T17:09:40;100068.66;;;10.62;72.41
83246;BME280;73140;46.754;17.714;2023-12-28T17:12:34;100060.44;;;10.49;71.50
83246;BME280;73140;46.754;17.714;2023-12-28T17:15:15;100044.13;;;10.24;72.88
83246;BME280;73140;46.754;17.714;2023-12-28T17:17:49;100044.06;;;10.20;72.02
83246;BME280;73140;46.754;17.714;2023-12-28T17:20:31;100055.13;;;10.47;71.72
83246;BME280;73140;46.754;17.714;2023-12-28T17:23:15;100019.63;;;10.33;72.69
83246;BME280;73140;46.754;17.714;2023-12-28T17:25:52;100033.84;;;10.39;72.11
83246;BME280;73140;46.754;17.714;2023-12-28T17:33:01;100041.03;;;10.48;71.30
83246;BME280;73140;46.754;17.714;2023-12-28T17:35:37;100027.78;;;10.45;71.66
83246;BME280;73140;46.754;17.714;2023-12-28T17:38:23;100033.03;;;10.43;71.18
83246;BME280;73140;46.754;17.714;2023-12-28T17:40:54;100012.75;;;10.44;71.81
83246;BME280;73140;46.754;17.714;2023-12-28T17:43:39;100040.06;;;10.43;71.98
83246;BME280;73140;46.754;17.714;2023-12-28T17:46:14;100030.47;;;10.48;71.59
83246;BME280;73140;46.754;17.714;2023-12-28T17:48:48;100026.28;;;10.61;70.47
83246;BME280;73140;46.754;17.714;2023-12-28T17:51:24;100017.19;;;10.45;70.44
83246;BME280;73140;46.754;17.714;2023-12-28T17:53:59;100018.34;;;10.61;69.50
83246;BME280;73140;46.754;17.714;2023-12-28T17:56:35;100021.88;;;10.61;69.01
83246;BME280;73140;46.754;17.714;2023-12-28T17:59:03;100045.66;;;10.58;69.59
83246;BME280;73140;46.754;17.714;2023-12-28T18:01:30;100052.56;;;10.50;69.76
83246;BME280;73140;46.754;17.714;2023-12-28T18:04:00;100067.75;;;10.63;69.72
83246;BME280;73140;46.754;17.714;2023-12-28T18:06:30;100068.66;;;10.62;69.53
83246;BME280;73140;46.754;17.714;2023-12-28T18:08:59;100056.88;;;10.45;69.86
83246;BME280;73140;46.754;17.714;2023-12-28T18:11:25;100073.00;;;10.60;69.65
83246;BME280;73140;46.754;17.714;2023-12-28T18:13:52;100066.50;;;10.43;70.86
83246;BME280;73140;46.754;17.714;2023-12-28T18:16:32;100066.47;;;10.40;70.81
83246;BME280;73140;46.754;17.714;2023-12-28T18:19:02;100069.09;;;10.40;70.30
83246;BME280;73140;46.754;17.714;2023-12-28T18:21:37;100054.00;;;10.33;70.14
83246;BME280;73140;46.754;17.714;2023-12-28T18:24:06;100060.13;;;10.32;69.70
83246;BME280;73140;46.754;17.714;2023-12-28T18:26:35;100045.88;;;10.24;71.45
83246;BME280;73140;46.754;17.714;2023-12-28T18:29:09;100081.38;;;10.35;72.10
83246;BME280;73140;46.754;17.714;2023-12-28T18:31:35;100048.63;;;10.28;71.01
83246;BME280;73140;46.754;17.714;2023-12-28T18:34:05;100053.84;;;10.25;70.34
83246;BME280;73140;46.754;17.714;2023-12-28T18:36:37;100055.75;;;10.32;71.39
83246;BME280;73140;46.754;17.714;2023-12-28T18:39:07;100062.69;;;10.26;71.75
83246;BME280;73140;46.754;17.714;2023-12-28T18:41:35;100054.44;;;10.11;72.30
83246;BME280;73140;46.754;17.714;2023-12-28T18:44:01;100067.88;;;10.21;71.53
83246;BME280;73140;46.754;17.714;2023-12-28T18:46:29;100056.16;;;10.09;72.63
83246;BME280;73140;46.754;17.714;2023-12-28T18:52:57;100029.88;;;9.73;73.67
83246;BME280;73140;46.754;17.714;2023-12-28T18:55:30;100031.22;;;9.94;72.12
83246;BME280;73140;46.754;17.714;2023-12-28T18:57:59;100032.53;;;10.16;70.95
83246;BME280;73140;46.754;17.714;2023-12-28T19:00:43;100044.19;;;10.26;72.30
83246;BME280;73140;46.754;17.714;2023-12-28T19:03:09;100054.81;;;10.29;71.75
83246;BME280;73140;46.754;17.714;2023-12-28T19:05:44;100031.47;;;10.07;72.51
83246;BME280;73140;46.754;17.714;2023-12-28T19:08:21;100033.47;;;10.20;71.18
83246;BME280;73140;46.754;17.714;2023-12-28T19:10:47;100049.66;;;10.35;71.36
83246;BME280;73140;46.754;17.714;2023-12-28T19:13:35;100027.94;;;10.08;72.15
83246;BME280;73140;46.754;17.714;2023-12-28T19:16:20;100029.72;;;10.09;71.92
83246;BME280;73140;46.754;17.714;2023-12-28T19:18:50;100020.81;;;10.04;72.53
83246;BME280;73140;46.754;17.714;2023-12-28T19:21:16;100056.19;;;10.12;72.27
83246;BME280;73140;46.754;17.714;2023-12-28T19:23:47;100051.75;;;10.09;72.96
83246;BME280;73140;46.754;17.714;2023-12-28T19:26:18;100055.16;;;10.04;72.73
83246;BME280;73140;46.754;17.714;2023-12-28T19:28:45;100034.59;;;9.87;73.94
83246;BME280;73140;46.754;17.714;2023-12-28T19:31:19;100048.13;;;10.04;72.92
83246;BME280;73140;46.754;17.714;2023-12-28T19:33:45;100021.53;;;9.95;73.80
83246;BME280;73140;46.754;17.714;2023-12-28T19:36:25;100042.78;;;10.01;73.60
83246;BME280;73140;46.754;17.714;2023-12-28T19:38:52;100058.75;;;10.06;73.77
83246;BME280;73140;46.754;17.714;2023-12-28T19:41:20;100049.03;;;10.05;73.35
83246;BME280;73140;46.754;17.714;2023-12-28T19:43:46;100025.94;;;9.94;73.11
83246;BME280;73140;46.754;17.714;2023-12-28T19:46:22;100017.81;;;9.84;74.16
83246;BME280;73140;46.754;17.714;2023-12-28T19:48:52;100017.81;;;9.84;73.70
83246;BME280;73140;46.754;17.714;2023-12-28T19:51:19;100025.00;;;9.92;73.60
83246;BME280;73140;46.754;17.714;2023-12-28T19:54:02;100042.75;;;9.98;73.35
83246;BME280;73140;46.754;17.714;2023-12-28T19:56:31;100031.97;;;9.87;73.87
83246;BME280;73140;46.754;17.714;2023-12-28T19:59:00;100041.75;;;9.91;73.79
83246;BME280;73140;46.754;17.714;2023-12-28T20:01:37;100008.03;;;9.80;74.94
83246;BME280;73140;46.754;17.714;2023-12-28T20:04:08;100018.75;;;9.89;74.19
83246;BME280;73140;46.754;17.714;2023-12-28T20:06:42;100031.09;;;9.88;73.49
83246;BME280;73140;46.754;17.714;2023-12-28T20:09:11;100025.09;;;9.95;73.88
83246;BME280;73140;46.754;17.714;2023-12-28T20:11:52;100020.50;;;9.88;74.72
83246;BME280;73140;46.754;17.714;2023-12-28T20:14:18;100019.63;;;9.88;74.04
83246;BME280;73140;46.754;17.714;2023-12-28T20:16:44;100020.47;;;9.85;74.61
83246;BME280;73140;46.754;17.714;2023-12-28T20:19:14;100038.41;;;10.02;74.47
83246;BME280;73140;46.754;17.714;2023-12-28T20:21:55;100040.19;;;10.03;73.56
83246;BME280;73140;46.754;17.714;2023-12-28T20:24:25;100024.09;;;9.90;74.62
83246;BME280;73140;46.754;17.714;2023-12-28T20:26:54;100030.22;;;9.89;74.44
83246;BME280;73140;46.754;17.714;2023-12-28T20:29:22;100039.94;;;9.90;74.08
83246;BME280;73140;46.754;17.714;2023-12-28T20:31:50;100057.50;;;9.88;74.95
83246;BME280;73140;46.754;17.714;2023-12-28T20:37:56;100039.91;;;9.87;74.63
83246;BME280;73140;46.754;17.714;2023-12-28T20:40:41;100048.78;;;9.92;74.61
83246;BME280;73140;46.754;17.714;2023-12-28T20:43:10;100022.13;;;9.80;75.15
83246;BME280;73140;46.754;17.714;2023-12-28T20:45:45;100022.75;;;9.69;74.95
83246;BME280;73140;46.754;17.714;2023-12-28T20:48:11;100019.38;;;9.74;75.83
83246;BME280;73140;46.754;17.714;2023-12-28T20:50:49;100032.47;;;9.68;75.28
83246;BME280;73140;46.754;17.714;2023-12-28T20:53:15;100043.13;;;9.74;75.68
83246;BME280;73140;46.754;17.714;2023-12-28T20:55:43;100043.09;;;9.71;75.57
83246;BME280;73140;46.754;17.714;2023-12-28T20:58:12;100037.81;;;9.71;75.58
83246;BME280;73140;46.754;17.714;2023-12-28T21:00:38;100036.88;;;9.69;75.47
83246;BME280;73140;46.754;17.714;2023-12-28T21:03:04;100030.53;;;9.60;75.16
83246;BME280;73140;46.754;17.714;2023-12-28T21:05:35;100028.84;;;9.63;75.72
83246;BME280;73140;46.754;17.714;2023-12-28T21:08:01;100037.84;;;9.74;75.53
83246;BME280;73140;46.754;17.714;2023-12-28T21:10:27;100037.81;;;9.71;74.64
83246;BME280;73140;46.754;17.714;2023-12-28T21:12:56;100020.84;;;9.60;75.43
83246;BME280;73140;46.754;17.714;2023-12-28T21:15:27;100022.47;;;9.54;75.41
83246;BME280;73140;46.754;17.714;2023-12-28T21:17:53;100036.34;;;9.45;76.17
83246;BME280;73140;46.754;17.714;2023-12-28T21:20:19;100032.00;;;9.47;75.75
83246;BME280;73140;46.754;17.714;2023-12-28T21:22:45;100025.00;;;9.49;75.17
83246;BME280;73140;46.754;17.714;2023-12-28T21:25:13;100020.59;;;9.48;75.35
83246;BME280;73140;46.754;17.714;2023-12-28T21:27:39;100008.78;;;9.31;76.19
83246;BME280;73140;46.754;17.714;2023-12-28T21:30:09;100035.50;;;9.46;75.17
83246;BME280;73140;46.754;17.714;2023-12-28T21:32:35;100051.34;;;9.46;76.53
83246;BME280;73140;46.754;17.714;2023-12-28T21:35:10;100056.78;;;9.52;75.45
83246;BME280;73140;46.754;17.714;2023-12-28T21:37:45;100038.94;;;9.42;75.68
83246;BME280;73140;46.754;17.714;2023-12-28T21:40:11;100037.09;;;9.38;75.60
83246;BME280;73140;46.754;17.714;2023-12-28T21:42:41;100037.09;;;9.38;75.73
83246;BME280;73140;46.754;17.714;2023-12-28T21:45:09;100040.72;;;9.43;76.38
83246;BME280;73140;46.754;17.714;2023-12-28T21:47:38;100047.78;;;9.44;75.74
83246;BME280;73140;46.754;17.714;2023-12-28T21:50:08;100041.81;;;9.53;75.39
83246;BME280;73140;46.754;17.714;2023-12-28T21:52:43;100035.38;;;9.41;75.44
83246;BME280;73140;46.754;17.714;2023-12-28T21:55:11;100052.28;;;9.49;75.60
83246;BME280;73140;46.754;17.714;2023-12-28T21:57:39;100028.38;;;9.42;75.26
83246;BME280;73140;46.754;17.714;2023-12-28T22:00:19;100024.63;;;9.31;76.93
83246;BME280;73140;46.754;17.714;2023-12-28T22:02:49;100024.63;;;9.31;76.67
83246;BME280;73140;46.754;17.714;2023-12-28T22:05:17;100032.44;;;9.26;76.21
83246;BME280;73140;46.754;17.714;2023-12-28T22:07:44;100020.06;;;9.24;75.94
83246;BME280;73140;46.754;17.714;2023-12-28T22:10:14;100017.38;;;9.21;76.88
83246;BME280;73140;46.754;17.714;2023-12-28T22:12:40;100033.09;;;9.18;76.23
83246;BME280;73140;46.754;17.714;2023-12-28T22:15:10;100045.63;;;9.26;76.15
83246;BME280;73140;46.754;17.714;2023-12-28T22:17:36;100007.69;;;9.21;76.04
83246;BME280;73140;46.754;17.714;2023-12-28T22:20:09;100029.63;;;9.19;76.65
83246;BME280;73140;46.754;17.714;2023-12-28T22:22:35;100008.66;;;9.25;76.21
83246;BME280;73140;46.754;17.714;2023-12-28T22:25:01;99989.75;;;9.05;76.80
83246;BME280;73140;46.754;17.714;2023-12-28T22:27:28;100021.06;;;9.29;77.32
83246;BME280;73140;46.754;17.714;2023-12-28T22:29:57;100023.44;;;9.17;77.09
83246;BME280;73140;46.754;17.714;2023-12-28T22:32:30;100025.97;;;9.12;76.60
83246;BME280;73140;46.754;17.714;2023-12-28T22:34:58;99991.44;;;9.01;76.91
83246;BME280;73140;46.754;17.714;2023-12-28T22:37:27;100019.56;;;9.02;77.13
83246;BME280;73140;46.754;17.714;2023-12-28T22:39:53;100016.19;;;9.08;77.16
83246;BME280;73140;46.754;17.714;2023-12-28T22:42:19;100008.16;;;9.03;77.23
83246;BME280;73140;46.754;17.714;2023-12-28T22:44:45;100015.03;;;8.95;78.18
83246;BME280;73140;46.754;17.714;2023-12-28T22:47:12;100014.44;;;9.09;77.38
83246;BME280;73140;46.754;17.714;2023-12-28T22:49:44;100015.25;;;9.05;77.38
83246;BME280;73140;46.754;17.714;2023-12-28T22:52:11;100022.22;;;9.02;77.41
83246;BME280;73140;46.754;17.714;2023-12-28T22:54:43;100023.09;;;9.03;78.25
83246;BME280;73140;46.754;17.714;2023-12-28T22:57:09;100010.53;;;8.91;77.37
83246;BME280;73140;46.754;17.714;2023-12-28T22:59:36;100019.63;;;9.04;78.65
83246;BME280;73140;46.754;17.714;2023-12-28T23:02:05;99999.19;;;8.95;77.71
83246;BME280;73140;46.754;17.714;2023-12-28T23:04:53;99991.66;;;8.75;77.90
83246;BME280;73140;46.754;17.714;2023-12-28T23:07:20;99996.16;;;8.79;77.70
83246;BME280;73140;46.754;17.714;2023-12-28T23:09:55;100021.00;;;8.88;77.84
83246;BME280;73140;46.754;17.714;2023-12-28T23:12:21;99985.47;;;8.73;78.07
83246;BME280;73140;46.754;17.714;2023-12-28T23:14:47;100001.25;;;8.71;79.62
83246;BME280;73140;46.754;17.714;2023-12-28T23:17:16;99992.44;;;8.69;79.21
83246;BME280;73140;46.754;17.714;2023-12-28T23:19:45;99993.63;;;8.83;78.49
83246;BME280;73140;46.754;17.714;2023-12-28T23:22:21;99971.34;;;8.71;77.89
83246;BME280;73140;46.754;17.714;2023-12-28T23:24:47;99990.88;;;8.77;78.26
83246;BME280;73140;46.754;17.714;2023-12-28T23:27:16;99985.78;;;8.86;79.11
83246;BME280;73140;46.754;17.714;2023-12-28T23:29:42;99979.38;;;8.74;79.76
83246;BME280;73140;46.754;17.714;2023-12-28T23:32:08;99982.13;;;8.80;78.55
83246;BME280;73140;46.754;17.714;2023-12-28T23:34:34;99994.00;;;8.63;79.59
83246;BME280;73140;46.754;17.714;2023-12-28T23:37:04;99978.84;;;8.52;80.36
83246;BME280;73140;46.754;17.714;2023-12-28T23:39:37;99975.47;;;8.58;79.72
83246;BME280;73140;46.754;17.714;2023-12-28T23:42:04;100000.19;;;8.63;78.97
83246;BME280;73140;46.754;17.714;2023-12-28T23:44:33;99980.63;;;8.53;79.54
83246;BME280;73140;46.754;17.714;2023-12-28T23:46:59;99975.31;;;8.52;79.33
83246;BME280;73140;46.754;17.714;2023-12-28T23:49:25;99977.09;;;8.53;79.66
83246;BME280;73140;46.754;17.714;2023-12-28T23:51:53;99957.56;;;8.45;79.24
83246;BME280;73140;46.754;17.714;2023-12-28T23:54:19;99977.22;;;8.59;79.41
83246;BME280;73140;46.754;17.714;2023-12-28T23:56:47;99984.47;;;8.66;79.05
83246;BME280;73140;46.754;17.714;2023-12-28T23:59:13;99973.06;;;8.69;78.92
